sensor_id;sensor_type;location;lat;lon;timestamp;pressure;altitude;pressure_sealevel;temperature;humidity
60307;BME280;46155;52.364;6.580;2022-10-16T03:00:44;100770.97;;;12.08;100.00
60307;BME280;46155;52.364;6.580;2022-10-16T03:03:09;100775.41;;;12.09;100.00
60307;BME280;46155;52.364;6.580;2022-10-16T03:05:34;100767.03;;;11.99;100.00
60307;BME280;46155;52.364;6.580;2022-10-16T03:08:00;100779.88;;;12.10;100.00
60307;BME280;46155;52.364;6.580;2022-10-16T03:10:26;100780.69;;;12.09;100.00
60307;BME280;46155;52.364;6.580;2022-10-16T03:12:51;100782.56;;;12.11;100.00
60307;BME280;46155;52.364;6.580;2022-10-16T03:15:17;100788.56;;;12.09;100.00
60307;BME280;46155;52.364;6.580;2022-10-16T03:17:42;100795.66;;;12.10;100.00
60307;BME280;46155;52.364;6.580;2022-10-16T03:20:08;100800.19;;;12.12;100.00
60307;BME280;46155;52.364;6.580;2022-10-16T03:22:33;100806.19;;;12.10;100.00
60307;BME280;46155;52.364;6.580;2022-10-16T03:24:59;100805.53;;;12.14;100.00
60307;BME280;46155;52.364;6.580;2022-10-16T03:27:24;100801.41;;;12.19;100.00
60307;BME280;46155;52.364;6.580;2022-10-16T03:29:50;100797.88;;;12.18;100.00
60307;BME280;46155;52.364;6.580;2022-10-16T03:32:15;100803.22;;;12.20;100.00
60307;BME280;46155;52.364;6.580;2022-10-16T03:34:40;100795.25;;;12.18;100.00
60307;BME280;46155;52.364;6.580;2022-10-16T03:37:06;100806.66;;;12.19;100.00
60307;BME280;46155;52.364;6.580;2022-10-16T03:39:31;100790.06;;;12.20;100.00
60307;BME280;46155;52.364;6.580;2022-10-16T03:41:56;100788.31;;;12.20;100.00
60307;BME280;46155;52.364;6.580;2022-10-16T03:44:22;100789.25;;;12.21;100.00
60307;BME280;46155;52.364;6.580;2022-10-16T03:46:47;100803.38;;;12.23;100.00
60307;BME280;46155;52.364;6.580;2022-10-16T03:49:12;100798.97;;;12.22;100.00
60307;BME280;46155;52.364;6.580;2022-10-16T03:51:37;100795.47;;;12.23;100.00
60307;BME280;46155;52.364;6.580;2022-10-16T03:54:03;100802.56;;;12.24;100.00
60307;BME280;46155;52.364;6.580;2022-10-16T03:56:28;100799.94;;;12.24;100.00
60307;BME280;46155;52.364;6.580;2022-10-16T03:58:53;100796.31;;;12.22;100.00
60307;BME280;46155;52.364;6.580;2022-10-16T04:01:19;100801.75;;;12.25;100.00
60307;BME280;46155;52.364;6.580;2022-10-16T04:03:44;100810.63;;;12.27;100.00
60307;BME280;46155;52.364;6.580;2022-10-16T04:06:09;100807.00;;;12.25;100.00
60307;BME280;46155;52.364;6.580;2022-10-16T04:08:34;100817.69;;;12.28;100.00
60307;BME280;46155;52.364;6.580;2022-10-16T04:11:02;100816.03;;;12.30;100.00
60307;BME280;46155;52.364;6.580;2022-10-16T04:13:27;100820.41;;;12.30;100.00
60307;BME280;46155;52.364;6.580;2022-10-16T04:15:52;100835.31;;;12.29;100.00
60307;BME280;46155;52.364;6.580;2022-10-16T04:18:18;100831.69;;;12.27;100.00
60307;BME280;46155;52.364;6.580;2022-10-16T04:20:43;100826.41;;;12.27;100.00
60307;BME280;46155;52.364;6.580;2022-10-16T04:23:08;100827.22;;;12.26;100.00
60307;BME280;46155;52.364;6.580;2022-10-16T04:25:34;100828.06;;;12.25;100.00
60307;BME280;46155;52.364;6.580;2022-10-16T04:27:59;100831.50;;;12.24;100.00
60307;BME280;46155;52.364;6.580;2022-10-16T04:30:25;100835.81;;;12.22;100.00
60307;BME280;46155;52.364;6.580;2022-10-16T04:32:51;100834.78;;;12.20;100.00
60307;BME280;46155;52.364;6.580;2022-10-16T04:35:17;100835.59;;;12.19;100.00
60307;BME280;46155;52.364;6.580;2022-10-16T04:37:43;100848.97;;;12.22;100.00
60307;BME280;46155;52.364;6.580;2022-10-16T04:40:08;100840.06;;;12.20;100.00
60307;BME280;46155;52.364;6.580;2022-10-16T04:42:34;100845.16;;;12.17;100.00
60307;BME280;46155;52.364;6.580;2022-10-16T04:44:59;100857.31;;;12.15;100.00
60307;BME280;46155;52.364;6.580;2022-10-16T04:47:24;100856.41;;;12.14;100.00
60307;BME280;46155;52.364;6.580;2022-10-16T04:49:49;100853.38;;;12.07;100.00
60307;BME280;46155;52.364;6.580;2022-10-16T04:52:15;100876.75;;;12.17;100.00
60307;BME280;46155;52.364;6.580;2022-10-16T04:54:40;100877.38;;;12.13;100.00
60307;BME280;46155;52.364;6.580;2022-10-16T04:57:05;100881.56;;;12.09;100.00
60307;BME280;46155;52.364;6.580;2022-10-16T04:59:31;100892.09;;;12.09;100.00
60307;BME280;46155;52.364;6.580;2022-10-16T05:01:56;100890.38;;;12.10;100.00
60307;BME280;46155;52.364;6.580;2022-10-16T05:04:21;100888.56;;;12.09;100.00
60307;BME280;46155;52.364;6.580;2022-10-16T05:06:47;100891.03;;;12.05;100.00
60307;BME280;46155;52.364;6.580;2022-10-16T05:09:13;100902.63;;;12.09;100.00
60307;BME280;46155;52.364;6.580;2022-10-16T05:11:38;100894.63;;;12.08;100.00
60307;BME280;46155;52.364;6.580;2022-10-16T05:14:04;100898.91;;;12.05;100.00
60307;BME280;46155;52.364;6.580;2022-10-16T05:16:29;100895.28;;;12.03;100.00
60307;BME280;46155;52.364;6.580;2022-10-16T05:18:55;100892.47;;;12.00;100.00
60307;BME280;46155;52.364;6.580;2022-10-16T05:21:21;100886.97;;;11.96;100.00
60307;BME280;46155;52.364;6.580;2022-10-16T05:23:47;100903.84;;;11.99;100.00
60307;BME280;46155;52.364;6.580;2022-10-16T05:26:12;100903.66;;;11.96;100.00
60307;BME280;46155;52.364;6.580;2022-10-16T05:28:37;100907.13;;;11.95;100.00
60307;BME280;46155;52.364;6.580;2022-10-16T05:31:07;100907.94;;;11.94;100.00
60307;BME280;46155;52.364;6.580;2022-10-16T05:33:33;100908.72;;;11.93;100.00
60307;BME280;46155;52.364;6.580;2022-10-16T05:36:06;100912.31;;;11.94;100.00
60307;BME280;46155;52.364;6.580;2022-10-16T05:38:36;100911.25;;;11.92;100.00
60307;BME280;46155;52.364;6.580;2022-10-16T05:41:02;100918.16;;;11.89;100.00
60307;BME280;46155;52.364;6.580;2022-10-16T05:43:28;100919.78;;;11.87;100.00
60307;BME280;46155;52.364;6.580;2022-10-16T05:45:59;100923.34;;;11.88;100.00
60307;BME280;46155;52.364;6.580;2022-10-16T05:48:25;100917.00;;;11.84;100.00
60307;BME280;46155;52.364;6.580;2022-10-16T05:51:05;100925.78;;;11.85;100.00
60307;BME280;46155;52.364;6.580;2022-10-16T05:53:33;100924.00;;;11.84;100.00
60307;BME280;46155;52.364;6.580;2022-10-16T05:55:59;100937.94;;;11.83;100.00
60307;BME280;46155;52.364;6.580;2022-10-16T05:58:25;100930.69;;;11.79;100.00
60307;BME280;46155;52.364;6.580;2022-10-16T06:00:59;100944.84;;;11.81;100.00
60307;BME280;46155;52.364;6.580;2022-10-16T06:03:25;100936.97;;;11.81;100.00
60307;BME280;46155;52.364;6.580;2022-10-16T06:05:50;100943.22;;;11.83;100.00
60307;BME280;46155;52.364;6.580;2022-10-16T06:08:15;100941.56;;;11.85;100.00
60307;BME280;46155;52.364;6.580;2022-10-16T06:10:41;100946.81;;;11.85;100.00
60307;BME280;46155;52.364;6.580;2022-10-16T06:13:06;100953.00;;;11.85;100.00
60307;BME280;46155;52.364;6.580;2022-10-16T06:15:32;100958.63;;;11.92;100.00
60307;BME280;46155;52.364;6.580;2022-10-16T06:17:57;100967.31;;;11.91;100.00
60307;BME280;46155;52.364;6.580;2022-10-16T06:20:22;100968.97;;;11.88;100.00
60307;BME280;46155;52.364;6.580;2022-10-16T06:22:47;100971.50;;;11.87;100.00
60307;BME280;46155;52.364;6.580;2022-10-16T06:25:13;100972.31;;;11.86;100.00
60307;BME280;46155;52.364;6.580;2022-10-16T06:27:41;100978.38;;;11.85;100.00
60307;BME280;46155;52.364;6.580;2022-10-16T06:30:07;100978.31;;;11.83;100.00
60307;BME280;46155;52.364;6.580;2022-10-16T06:32:33;100978.03;;;11.79;100.00
60307;BME280;46155;52.364;6.580;2022-10-16T06:34:58;100980.50;;;11.76;100.00
60307;BME280;46155;52.364;6.580;2022-10-16T06:37:23;100988.38;;;11.76;100.00
60307;BME280;46155;52.364;6.580;2022-10-16T06:39:50;100999.09;;;11.79;100.00
60307;BME280;46155;52.364;6.580;2022-10-16T06:42:17;100999.72;;;11.75;100.00
60307;BME280;46155;52.364;6.580;2022-10-16T06:44:42;101009.78;;;11.82;100.00
60307;BME280;46155;52.364;6.580;2022-10-16T06:47:08;101009.78;;;11.82;100.00
60307;BME280;46155;52.364;6.580;2022-10-16T06:49:33;101018.69;;;11.84;100.00
60307;BME280;46155;52.364;6.580;2022-10-16T06:51:58;101019.03;;;11.90;100.00
60307;BME280;46155;52.364;6.580;2022-10-16T06:54:24;101023.41;;;12.04;100.00
60307;BME280;46155;52.364;6.580;2022-10-16T06:56:50;101025.66;;;12.13;100.00
60307;BME280;46155;52.364;6.580;2022-10-16T06:59:16;101031.94;;;12.15;100.00
60307;BME280;46155;52.364;6.580;2022-10-16T07:01:41;101049.19;;;12.25;100.00
60307;BME280;46155;52.364;6.580;2022-10-16T07:04:06;101053.16;;;12.33;100.00
60307;BME280;46155;52.364;6.580;2022-10-16T07:06:33;101048.53;;;12.29;100.00
60307;BME280;46155;52.364;6.580;2022-10-16T07:09:01;101063.69;;;12.33;100.00
60307;BME280;46155;52.364;6.580;2022-10-16T07:11:27;101068.75;;;12.30;100.00
60307;BME280;46155;52.364;6.580;2022-10-16T07:13:52;101068.75;;;12.30;100.00
60307;BME280;46155;52.364;6.580;2022-10-16T07:16:20;101062.50;;;12.28;100.00
60307;BME280;46155;52.364;6.580;2022-10-16T07:18:45;101071.13;;;12.26;100.00
60307;BME280;46155;52.364;6.580;2022-10-16T07:21:19;101075.03;;;12.32;100.00
60307;BME280;46155;52.364;6.580;2022-10-16T07:23:49;101072.03;;;12.26;100.00
60307;BME280;46155;52.364;6.580;2022-10-16T07:26:15;101086.53;;;12.34;100.00
60307;BME280;46155;52.364;6.580;2022-10-16T07:28:42;101099.78;;;12.36;100.00
60307;BME280;46155;52.364;6.580;2022-10-16T07:31:11;101099.88;;;12.37;100.00
60307;BME280;46155;52.364;6.580;2022-10-16T07:33:37;101096.44;;;12.38;100.00
60307;BME280;46155;52.364;6.580;2022-10-16T07:36:03;101106.69;;;12.49;100.00
60307;BME280;46155;52.364;6.580;2022-10-16T07:38:29;101109.38;;;12.65;100.00
60307;BME280;46155;52.364;6.580;2022-10-16T07:41:09;101108.28;;;12.77;100.00
60307;BME280;46155;52.364;6.580;2022-10-16T07:43:34;101119.81;;;12.79;100.00
60307;BME280;46155;52.364;6.580;2022-10-16T07:46:00;101117.59;;;12.86;100.00
60307;BME280;46155;52.364;6.580;2022-10-16T07:48:33;101134.91;;;13.13;100.00
60307;BME280;46155;52.364;6.580;2022-10-16T07:51:00;101127.47;;;13.22;100.00
60307;BME280;46155;52.364;6.580;2022-10-16T07:53:26;101130.28;;;13.25;100.00
60307;BME280;46155;52.364;6.580;2022-10-16T07:55:56;101128.28;;;13.21;100.00
60307;BME280;46155;52.364;6.580;2022-10-16T07:58:22;101130.69;;;13.16;100.00
60307;BME280;46155;52.364;6.580;2022-10-16T08:00:48;101136.59;;;13.12;100.00
60307;BME280;46155;52.364;6.580;2022-10-16T08:03:13;101150.72;;;13.13;100.00
60307;BME280;46155;52.364;6.580;2022-10-16T08:05:38;101145.25;;;13.09;100.00
60307;BME280;46155;52.364;6.580;2022-10-16T08:08:03;101137.34;;;13.09;100.00
60307;BME280;46155;52.364;6.580;2022-10-16T08:10:29;101149.88;;;13.14;100.00
60307;BME280;46155;52.364;6.580;2022-10-16T08:12:54;101147.41;;;13.17;100.00
60307;BME280;46155;52.364;6.580;2022-10-16T08:15:20;101160.84;;;13.21;100.00
60307;BME280;46155;52.364;6.580;2022-10-16T08:17:57;101159.19;;;13.23;100.00
60307;BME280;46155;52.364;6.580;2022-10-16T08:20:22;101170.84;;;13.27;100.00
60307;BME280;46155;52.364;6.580;2022-10-16T08:22:47;101157.81;;;13.30;100.00
60307;BME280;46155;52.364;6.580;2022-10-16T08:25:13;101163.25;;;13.33;100.00
60307;BME280;46155;52.364;6.580;2022-10-16T08:27:38;101162.81;;;13.40;100.00
60307;BME280;46155;52.364;6.580;2022-10-16T08:30:04;101168.41;;;13.47;100.00
60307;BME280;46155;52.364;6.580;2022-10-16T08:32:29;101171.47;;;13.54;100.00
60307;BME280;46155;52.364;6.580;2022-10-16T08:34:54;101163.63;;;13.56;100.00
60307;BME280;46155;52.364;6.580;2022-10-16T08:37:20;101171.22;;;13.66;100.00
60307;BME280;46155;52.364;6.580;2022-10-16T08:39:45;101164.31;;;13.68;100.00
60307;BME280;46155;52.364;6.580;2022-10-16T08:42:25;101173.94;;;13.68;100.00
60307;BME280;46155;52.364;6.580;2022-10-16T08:47:42;101176.19;;;13.60;100.00
60307;BME280;46155;52.364;6.580;2022-10-16T08:50:23;101181.34;;;13.75;100.00
60307;BME280;46155;52.364;6.580;2022-10-16T08:52:49;101189.88;;;13.86;100.00
60307;BME280;46155;52.364;6.580;2022-10-16T08:55:38;101197.28;;;13.93;100.00
60307;BME280;46155;52.364;6.580;2022-10-16T08:58:12;101207.25;;;13.99;100.00
60307;BME280;46155;52.364;6.580;2022-10-16T09:00:39;101215.25;;;14.00;100.00
60307;BME280;46155;52.364;6.580;2022-10-16T09:03:14;101217.81;;;13.99;100.00
60307;BME280;46155;52.364;6.580;2022-10-16T09:17:36;101224.44;;;15.10;100.00
60307;BME280;46155;52.364;6.580;2022-10-16T09:22:38;101240.25;;;15.46;99.32
60307;BME280;46155;52.364;6.580;2022-10-16T09:25:19;101240.97;;;15.62;100.00
60307;BME280;46155;52.364;6.580;2022-10-16T09:27:47;101244.16;;;15.73;97.88
60307;BME280;46155;52.364;6.580;2022-10-16T09:30:16;101251.91;;;15.88;97.46
60307;BME280;46155;52.364;6.580;2022-10-16T09:32:44;101256.53;;;15.92;95.26
60307;BME280;46155;52.364;6.580;2022-10-16T09:35:17;101261.13;;;15.96;94.77
60307;BME280;46155;52.364;6.580;2022-10-16T09:37:47;101270.13;;;15.99;94.03
60307;BME280;46155;52.364;6.580;2022-10-16T09:40:28;101266.31;;;16.12;95.14
60307;BME280;46155;52.364;6.580;2022-10-16T09:45:29;101273.41;;;16.13;91.75
60307;BME280;46155;52.364;6.580;2022-10-16T09:47:54;101285.97;;;16.17;92.29
60307;BME280;46155;52.364;6.580;2022-10-16T09:50:25;101282.97;;;16.29;93.26
60307;BME280;46155;52.364;6.580;2022-10-16T09:53:03;101283.16;;;16.34;91.86
60307;BME280;46155;52.364;6.580;2022-10-16T09:55:29;101284.97;;;16.35;90.78
60307;BME280;46155;52.364;6.580;2022-10-16T09:57:54;101287.00;;;16.41;92.08
60307;BME280;46155;52.364;6.580;2022-10-16T10:00:21;101293.69;;;16.52;93.03
60307;BME280;46155;52.364;6.580;2022-10-16T10:02:47;101291.09;;;16.53;90.26
60307;BME280;46155;52.364;6.580;2022-10-16T10:05:27;101288.00;;;16.64;90.38
60307;BME280;46155;52.364;6.580;2022-10-16T10:08:01;101288.28;;;16.70;89.05
60307;BME280;46155;52.364;6.580;2022-10-16T10:10:32;101290.94;;;16.70;89.56
60307;BME280;46155;52.364;6.580;2022-10-16T10:12:59;101285.63;;;16.70;89.07
60307;BME280;46155;52.364;6.580;2022-10-16T10:15:25;101294.91;;;16.80;89.17
60307;BME280;46155;52.364;6.580;2022-10-16T10:17:55;101283.44;;;16.81;89.11
60307;BME280;46155;52.364;6.580;2022-10-16T10:22:48;101291.25;;;16.97;89.06
60307;BME280;46155;52.364;6.580;2022-10-16T10:55:15;101307.25;;;16.60;83.31
60307;BME280;46155;52.364;6.580;2022-10-16T11:03:20;101320.94;;;16.69;84.20
60307;BME280;46155;52.364;6.580;2022-10-16T11:05:56;101322.06;;;16.74;83.32
60307;BME280;46155;52.364;6.580;2022-10-16T11:08:47;101324.22;;;16.63;82.78
60307;BME280;46155;52.364;6.580;2022-10-16T11:11:18;101333.50;;;16.53;82.93
60307;BME280;46155;52.364;6.580;2022-10-16T11:13:56;101331.69;;;16.33;82.57
60307;BME280;46155;52.364;6.580;2022-10-16T11:16:37;101330.56;;;16.28;83.44
60307;BME280;46155;52.364;6.580;2022-10-16T11:19:16;101330.44;;;16.25;83.30
60307;BME280;46155;52.364;6.580;2022-10-16T11:21:51;101321.50;;;16.23;82.23
60307;BME280;46155;52.364;6.580;2022-10-16T11:24:24;101330.50;;;16.26;82.25
60307;BME280;46155;52.364;6.580;2022-10-16T11:26:56;101337.53;;;16.26;82.59
60307;BME280;46155;52.364;6.580;2022-10-16T11:29:26;101339.41;;;16.28;82.80
60307;BME280;46155;52.364;6.580;2022-10-16T11:32:00;101343.53;;;16.41;85.06
60307;BME280;46155;52.364;6.580;2022-10-16T11:34:37;101341.09;;;16.65;82.65
60307;BME280;46155;52.364;6.580;2022-10-16T11:37:21;101354.13;;;16.80;80.88
60307;BME280;46155;52.364;6.580;2022-10-16T11:39:50;101340.81;;;16.79;81.50
60307;BME280;46155;52.364;6.580;2022-10-16T11:42:43;101346.94;;;16.78;79.85
60307;BME280;46155;52.364;6.580;2022-10-16T11:45:33;101353.88;;;16.74;78.83
60307;BME280;46155;52.364;6.580;2022-10-16T11:48:23;101356.84;;;16.82;80.45
60307;BME280;46155;52.364;6.580;2022-10-16T11:50:58;101368.81;;;16.92;81.91
60307;BME280;46155;52.364;6.580;2022-10-16T11:56:17;101371.13;;;17.05;78.33
60307;BME280;46155;52.364;6.580;2022-10-16T12:03:44;101378.66;;;17.36;76.85
60307;BME280;46155;52.364;6.580;2022-10-16T12:06:27;101370.19;;;17.45;75.32
60307;BME280;46155;52.364;6.580;2022-10-16T12:08:55;101372.78;;;17.44;74.73
60307;BME280;46155;52.364;6.580;2022-10-16T12:14:07;101372.41;;;17.34;73.69
60307;BME280;46155;52.364;6.580;2022-10-16T12:16:58;101379.19;;;17.28;74.29
60307;BME280;46155;52.364;6.580;2022-10-16T12:19:28;101382.03;;;17.11;73.40
60307;BME280;46155;52.364;6.580;2022-10-16T12:21:59;101382.59;;;17.04;74.61
60307;BME280;46155;52.364;6.580;2022-10-16T12:24:38;101389.69;;;17.05;75.47
60307;BME280;46155;52.364;6.580;2022-10-16T12:27:06;101390.91;;;16.92;76.25
60307;BME280;46155;52.364;6.580;2022-10-16T12:29:39;101392.53;;;16.89;76.88
60307;BME280;46155;52.364;6.580;2022-10-16T12:32:25;101394.50;;;16.93;76.52
60307;BME280;46155;52.364;6.580;2022-10-16T12:34:52;101395.50;;;16.96;76.78
60307;BME280;46155;52.364;6.580;2022-10-16T12:37:23;101393.22;;;17.04;76.78
60307;BME280;46155;52.364;6.580;2022-10-16T12:39:51;101395.34;;;17.13;77.04
60307;BME280;46155;52.364;6.580;2022-10-16T12:44:52;101394.13;;;17.26;76.06
60307;BME280;46155;52.364;6.580;2022-10-16T12:49:56;101405.97;;;17.13;76.31
60307;BME280;46155;52.364;6.580;2022-10-16T12:54:59;101399.56;;;16.88;74.56
60307;BME280;46155;52.364;6.580;2022-10-16T13:00:25;101416.56;;;16.74;73.32
60307;BME280;46155;52.364;6.580;2022-10-16T13:08:33;101411.63;;;16.62;74.84
60307;BME280;46155;52.364;6.580;2022-10-16T13:11:10;101419.91;;;16.69;76.40
60307;BME280;46155;52.364;6.580;2022-10-16T13:16:48;101418.03;;;16.86;77.09
60307;BME280;46155;52.364;6.580;2022-10-16T13:19:27;101417.72;;;16.98;77.02
60307;BME280;46155;52.364;6.580;2022-10-16T13:27:55;101424.03;;;17.21;74.18
60307;BME280;46155;52.364;6.580;2022-10-16T13:30:28;101419.19;;;17.11;73.14
60307;BME280;46155;52.364;6.580;2022-10-16T13:35:28;101428.97;;;16.93;73.29
60307;BME280;46155;52.364;6.580;2022-10-16T13:38:27;101429.09;;;16.96;72.04
60307;BME280;46155;52.364;6.580;2022-10-16T13:45:55;101431.44;;;17.09;72.17
60307;BME280;46155;52.364;6.580;2022-10-16T13:48:22;101430.94;;;17.18;73.38
60307;BME280;46155;52.364;6.580;2022-10-16T13:51:01;101430.28;;;17.24;74.26
60307;BME280;46155;52.364;6.580;2022-10-16T13:53:26;101435.47;;;17.20;73.48
60307;BME280;46155;52.364;6.580;2022-10-16T13:55:52;101430.38;;;17.25;72.42
60307;BME280;46155;52.364;6.580;2022-10-16T13:58:18;101434.84;;;17.26;73.06
60307;BME280;46155;52.364;6.580;2022-10-16T14:00:57;101441.19;;;17.30;70.08
60307;BME280;46155;52.364;6.580;2022-10-16T14:03:23;101448.94;;;17.25;70.06
60307;BME280;46155;52.364;6.580;2022-10-16T14:06:00;101453.34;;;17.25;70.35
60307;BME280;46155;52.364;6.580;2022-10-16T14:08:28;101453.34;;;17.25;71.30
60307;BME280;46155;52.364;6.580;2022-10-16T14:10:57;101459.84;;;17.31;72.26
60307;BME280;46155;52.364;6.580;2022-10-16T14:13:43;101453.13;;;17.40;71.39
60307;BME280;46155;52.364;6.580;2022-10-16T14:16:15;101456.47;;;17.35;69.64
60307;BME280;46155;52.364;6.580;2022-10-16T14:18:46;101448.53;;;17.35;69.92
60307;BME280;46155;52.364;6.580;2022-10-16T14:21:14;101453.69;;;17.32;69.58
60307;BME280;46155;52.364;6.580;2022-10-16T14:23:41;101452.00;;;17.34;72.25
60307;BME280;46155;52.364;6.580;2022-10-16T14:28:33;101464.50;;;17.37;71.24
60307;BME280;46155;52.364;6.580;2022-10-16T14:31:00;101460.22;;;17.41;71.61
60307;BME280;46155;52.364;6.580;2022-10-16T14:36:10;101472.41;;;17.35;72.05
60307;BME280;46155;52.364;6.580;2022-10-16T14:38:38;101476.78;;;17.35;71.68
60307;BME280;46155;52.364;6.580;2022-10-16T14:41:06;101472.34;;;17.34;72.79
60307;BME280;46155;52.364;6.580;2022-10-16T14:43:37;101475.13;;;17.37;73.21
60307;BME280;46155;52.364;6.580;2022-10-16T14:48:40;101477.06;;;17.41;71.49
60307;BME280;46155;52.364;6.580;2022-10-16T14:51:13;101466.41;;;17.40;72.10
60307;BME280;46155;52.364;6.580;2022-10-16T14:53:38;101467.28;;;17.40;72.85
60307;BME280;46155;52.364;6.580;2022-10-16T14:56:24;101459.97;;;17.34;71.50
60307;BME280;46155;52.364;6.580;2022-10-16T14:58:50;101467.88;;;17.33;72.04
60307;BME280;46155;52.364;6.580;2022-10-16T15:01:17;101465.22;;;17.33;72.32
60307;BME280;46155;52.364;6.580;2022-10-16T15:03:43;101463.19;;;17.27;72.79
60307;BME280;46155;52.364;6.580;2022-10-16T15:06:12;101469.84;;;17.17;70.84
60307;BME280;46155;52.364;6.580;2022-10-16T15:08:38;101467.06;;;17.14;72.04
60307;BME280;46155;52.364;6.580;2022-10-16T15:11:04;101468.88;;;17.15;72.24
60307;BME280;46155;52.364;6.580;2022-10-16T15:13:29;101472.38;;;17.14;73.05
60307;BME280;46155;52.364;6.580;2022-10-16T15:15:54;101470.41;;;17.10;72.25
60307;BME280;46155;52.364;6.580;2022-10-16T15:18:20;101471.94;;;17.05;73.36
60307;BME280;46155;52.364;6.580;2022-10-16T15:20:50;101473.50;;;17.00;74.15
60307;BME280;46155;52.364;6.580;2022-10-16T15:23:21;101471.41;;;16.93;74.32
60307;BME280;46155;52.364;6.580;2022-10-16T15:25:54;101482.00;;;16.93;74.48
60307;BME280;46155;52.364;6.580;2022-10-16T15:28:21;101470.94;;;16.83;74.63
60307;BME280;46155;52.364;6.580;2022-10-16T15:30:49;101479.72;;;16.82;74.84
60307;BME280;46155;52.364;6.580;2022-10-16T15:33:17;101485.72;;;16.78;76.08
60307;BME280;46155;52.364;6.580;2022-10-16T15:35:46;101481.97;;;16.73;76.36
60307;BME280;46155;52.364;6.580;2022-10-16T15:38:12;101480.81;;;16.68;77.51
60307;BME280;46155;52.364;6.580;2022-10-16T15:40:39;101479.78;;;16.64;78.14
60307;BME280;46155;52.364;6.580;2022-10-16T15:43:04;101476.00;;;16.59;79.54
60307;BME280;46155;52.364;6.580;2022-10-16T15:45:30;101483.88;;;16.58;79.26
60307;BME280;46155;52.364;6.580;2022-10-16T15:47:55;101483.75;;;16.55;79.82
60307;BME280;46155;52.364;6.580;2022-10-16T15:50:20;101480.09;;;16.52;79.68
60307;BME280;46155;52.364;6.580;2022-10-16T15:52:46;101473.75;;;16.49;81.04
60307;BME280;46155;52.364;6.580;2022-10-16T15:55:13;101473.44;;;16.43;81.78
60307;BME280;46155;52.364;6.580;2022-10-16T15:57:39;101465.16;;;16.35;81.44
60307;BME280;46155;52.364;6.580;2022-10-16T16:00:08;101469.09;;;16.25;82.45
60307;BME280;46155;52.364;6.580;2022-10-16T16:02:34;101477.59;;;16.18;82.64
60307;BME280;46155;52.364;6.580;2022-10-16T16:04:59;101477.97;;;16.08;82.43
60307;BME280;46155;52.364;6.580;2022-10-16T16:07:25;101474.78;;;15.97;82.93
60307;BME280;46155;52.364;6.580;2022-10-16T16:09:50;101482.25;;;15.88;84.23
60307;BME280;46155;52.364;6.580;2022-10-16T16:12:15;101471.13;;;15.77;83.26
60307;BME280;46155;52.364;6.580;2022-10-16T16:14:40;101482.38;;;15.73;83.95
60307;BME280;46155;52.364;6.580;2022-10-16T16:17:06;101480.19;;;15.64;83.95
60307;BME280;46155;52.364;6.580;2022-10-16T16:19:32;101494.91;;;15.59;84.94
60307;BME280;46155;52.364;6.580;2022-10-16T16:21:58;101500.72;;;15.52;84.50
60307;BME280;46155;52.364;6.580;2022-10-16T16:24:23;101502.13;;;15.45;85.00
60307;BME280;46155;52.364;6.580;2022-10-16T16:26:49;101493.66;;;15.34;85.12
60307;BME280;46155;52.364;6.580;2022-10-16T16:29:15;101494.97;;;15.26;87.17
60307;BME280;46155;52.364;6.580;2022-10-16T16:31:41;101496.06;;;15.13;88.65
60307;BME280;46155;52.364;6.580;2022-10-16T16:34:07;101500.69;;;15.01;89.79
60307;BME280;46155;52.364;6.580;2022-10-16T16:36:33;101509.19;;;14.95;88.65
60307;BME280;46155;52.364;6.580;2022-10-16T16:38:59;101514.56;;;14.96;89.79
60307;BME280;46155;52.364;6.580;2022-10-16T16:41:27;101505.72;;;14.96;88.08
60307;BME280;46155;52.364;6.580;2022-10-16T16:43:54;101516.16;;;14.93;88.58
60307;BME280;46155;52.364;6.580;2022-10-16T16:46:20;101502.41;;;14.84;89.65
60307;BME280;46155;52.364;6.580;2022-10-16T16:48:46;101508.59;;;14.84;89.48
60307;BME280;46155;52.364;6.580;2022-10-16T16:51:14;101518.03;;;14.79;88.75
60307;BME280;46155;52.364;6.580;2022-10-16T16:53:42;101518.59;;;14.73;88.96
60307;BME280;46155;52.364;6.580;2022-10-16T16:56:08;101523.88;;;14.73;89.49
60307;BME280;46155;52.364;6.580;2022-10-16T16:58:33;101519.41;;;14.72;89.34
60307;BME280;46155;52.364;6.580;2022-10-16T17:01:00;101528.16;;;14.71;89.67
60307;BME280;46155;52.364;6.580;2022-10-16T17:03:31;101539.56;;;14.70;89.89
60307;BME280;46155;52.364;6.580;2022-10-16T17:06:02;101531.28;;;14.64;91.61
60307;BME280;46155;52.364;6.580;2022-10-16T17:08:28;101529.81;;;14.54;93.55
60307;BME280;46155;52.364;6.580;2022-10-16T17:10:55;101500.66;;;14.36;93.67
60307;BME280;46155;52.364;6.580;2022-10-16T17:13:22;101527.59;;;14.45;92.56
60307;BME280;46155;52.364;6.580;2022-10-16T17:15:50;101531.06;;;14.44;91.45
60307;BME280;46155;52.364;6.580;2022-10-16T17:18:16;101529.97;;;14.41;91.08
60307;BME280;46155;52.364;6.580;2022-10-16T17:20:42;101536.72;;;14.36;91.18
60307;BME280;46155;52.364;6.580;2022-10-16T17:23:09;101545.28;;;14.32;91.21
60307;BME280;46155;52.364;6.580;2022-10-16T17:25:35;101548.94;;;14.34;91.88
60307;BME280;46155;52.364;6.580;2022-10-16T17:28:01;101556.03;;;14.35;91.13
60307;BME280;46155;52.364;6.580;2022-10-16T17:30:26;101560.41;;;14.34;91.16
60307;BME280;46155;52.364;6.580;2022-10-16T17:32:52;101571.91;;;14.35;90.46
60307;BME280;46155;52.364;6.580;2022-10-16T17:35:17;101572.38;;;14.27;90.35
60307;BME280;46155;52.364;6.580;2022-10-16T17:37:43;101571.91;;;14.20;91.37
60307;BME280;46155;52.364;6.580;2022-10-16T17:40:09;101569.09;;;14.17;92.31